sensor_id;sensor_type;location;lat;lon;timestamp;P1;durP1;ratioP1;P2;durP2;ratioP2
12587;SDS011;6359;51.450;7.346;2022-08-19T00:01:19;13.35;;;11.48;;
12587;SDS011;6359;51.450;7.346;2022-08-19T00:03:46;16.52;;;11.38;;
12587;SDS011;6359;51.450;7.346;2022-08-19T00:06:13;12.23;;;10.65;;
12587;SDS011;6359;51.450;7.346;2022-08-19T00:08:40;10.30;;;9.30;;
12587;SDS011;6359;51.450;7.346;2022-08-19T00:11:08;12.45;;;9.85;;
12587;SDS011;6359;51.450;7.346;2022-08-19T00:13:36;12.32;;;10.73;;
12587;SDS011;6359;51.450;7.346;2022-08-19T00:16:05;12.32;;;11.02;;
12587;SDS011;6359;51.450;7.346;2022-08-19T00:18:33;17.42;;;12.40;;
12587;SDS011;6359;51.450;7.346;2022-08-19T00:21:00;13.98;;;11.55;;
12587;SDS011;6359;51.450;7.346;2022-08-19T00:23:27;15.35;;;13.02;;
12587;SDS011;6359;51.450;7.346;2022-08-19T00:25:55;16.27;;;13.38;;
12587;SDS011;6359;51.450;7.346;2022-08-19T00:28:22;14.35;;;12.23;;
12587;SDS011;6359;51.450;7.346;2022-08-19T00:30:48;14.90;;;12.77;;
12587;SDS011;6359;51.450;7.346;2022-08-19T00:33:18;13.10;;;11.07;;
12587;SDS011;6359;51.450;7.346;2022-08-19T00:35:45;12.88;;;11.52;;
12587;SDS011;6359;51.450;7.346;2022-08-19T00:38:12;13.13;;;11.77;;
12587;SDS011;6359;51.450;7.346;2022-08-19T00:40:39;16.88;;;12.13;;
12587;SDS011;6359;51.450;7.346;2022-08-19T00:43:12;14.98;;;13.00;;
12587;SDS011;6359;51.450;7.346;2022-08-19T00:45:40;15.63;;;12.57;;
12587;SDS011;6359;51.450;7.346;2022-08-19T00:48:08;15.05;;;12.15;;
12587;SDS011;6359;51.450;7.346;2022-08-19T00:50:37;14.13;;;12.02;;
12587;SDS011;6359;51.450;7.346;2022-08-19T00:53:08;13.13;;;11.75;;
12587;SDS011;6359;51.450;7.346;2022-08-19T00:55:36;13.88;;;12.07;;
12587;SDS011;6359;51.450;7.346;2022-08-19T00:58:05;12.82;;;11.48;;
12587;SDS011;6359;51.450;7.346;2022-08-19T01:00:34;13.13;;;11.75;;
12587;SDS011;6359;51.450;7.346;2022-08-19T01:03:02;13.60;;;11.95;;
12587;SDS011;6359;51.450;7.346;2022-08-19T01:05:30;12.98;;;11.68;;
12587;SDS011;6359;51.450;7.346;2022-08-19T01:08:00;15.32;;;12.43;;
12587;SDS011;6359;51.450;7.346;2022-08-19T01:10:30;17.92;;;12.65;;
12587;SDS011;6359;51.450;7.346;2022-08-19T01:13:00;13.35;;;11.32;;
12587;SDS011;6359;51.450;7.346;2022-08-19T01:15:30;13.82;;;12.10;;
12587;SDS011;6359;51.450;7.346;2022-08-19T01:17:59;15.38;;;13.18;;
12587;SDS011;6359;51.450;7.346;2022-08-19T01:20:30;14.45;;;11.70;;
12587;SDS011;6359;51.450;7.346;2022-08-19T01:23:01;12.05;;;10.85;;
12587;SDS011;6359;51.450;7.346;2022-08-19T01:25:29;14.90;;;12.18;;
12587;SDS011;6359;51.450;7.346;2022-08-19T01:27:59;16.38;;;12.02;;
12587;SDS011;6359;51.450;7.346;2022-08-19T01:30:27;13.90;;;12.13;;
12587;SDS011;6359;51.450;7.346;2022-08-19T01:32:56;17.17;;;12.63;;
12587;SDS011;6359;51.450;7.346;2022-08-19T01:35:24;16.67;;;13.55;;
12587;SDS011;6359;51.450;7.346;2022-08-19T01:37:52;19.45;;;13.68;;
12587;SDS011;6359;51.450;7.346;2022-08-19T01:40:23;17.95;;;14.10;;
12587;SDS011;6359;51.450;7.346;2022-08-19T01:42:54;14.85;;;12.48;;
12587;SDS011;6359;51.450;7.346;2022-08-19T01:45:23;15.45;;;12.40;;
12587;SDS011;6359;51.450;7.346;2022-08-19T01:47:51;14.90;;;13.27;;
12587;SDS011;6359;51.450;7.346;2022-08-19T01:50:19;20.75;;;12.98;;
12587;SDS011;6359;51.450;7.346;2022-08-19T01:52:46;16.55;;;13.73;;
12587;SDS011;6359;51.450;7.346;2022-08-19T01:55:15;15.40;;;12.93;;
12587;SDS011;6359;51.450;7.346;2022-08-19T01:57:46;17.38;;;13.25;;
12587;SDS011;6359;51.450;7.346;2022-08-19T02:00:17;15.00;;;13.50;;
12587;SDS011;6359;51.450;7.346;2022-08-19T02:02:45;16.55;;;13.52;;
12587;SDS011;6359;51.450;7.346;2022-08-19T02:05:12;16.42;;;14.65;;
12587;SDS011;6359;51.450;7.346;2022-08-19T02:07:43;18.02;;;14.85;;
12587;SDS011;6359;51.450;7.346;2022-08-19T02:10:11;17.17;;;13.80;;
12587;SDS011;6359;51.450;7.346;2022-08-19T02:12:40;15.60;;;13.82;;
12587;SDS011;6359;51.450;7.346;2022-08-19T02:15:09;16.60;;;13.15;;
12587;SDS011;6359;51.450;7.346;2022-08-19T02:17:36;18.23;;;14.27;;
12587;SDS011;6359;51.450;7.346;2022-08-19T02:20:04;18.65;;;12.95;;
12587;SDS011;6359;51.450;7.346;2022-08-19T02:22:32;18.00;;;14.15;;
12587;SDS011;6359;51.450;7.346;2022-08-19T02:25:00;18.75;;;13.60;;
12587;SDS011;6359;51.450;7.346;2022-08-19T02:27:29;16.80;;;13.88;;
12587;SDS011;6359;51.450;7.346;2022-08-19T02:29:58;14.90;;;13.30;;
12587;SDS011;6359;51.450;7.346;2022-08-19T02:32:27;16.25;;;14.00;;
12587;SDS011;6359;51.450;7.346;2022-08-19T02:34:55;15.02;;;13.52;;
12587;SDS011;6359;51.450;7.346;2022-08-19T02:37:22;19.75;;;13.77;;
12587;SDS011;6359;51.450;7.346;2022-08-19T02:40:07;18.35;;;14.38;;
12587;SDS011;6359;51.450;7.346;2022-08-19T02:42:35;16.40;;;14.30;;
12587;SDS011;6359;51.450;7.346;2022-08-19T02:45:02;15.65;;;13.45;;
12587;SDS011;6359;51.450;7.346;2022-08-19T02:47:31;14.77;;;13.20;;
12587;SDS011;6359;51.450;7.346;2022-08-19T02:50:00;15.30;;;12.75;;
12587;SDS011;6359;51.450;7.346;2022-08-19T02:52:27;18.75;;;14.73;;
12587;SDS011;6359;51.450;7.346;2022-08-19T02:54:54;15.98;;;13.75;;
12587;SDS011;6359;51.450;7.346;2022-08-19T02:57:22;16.25;;;13.52;;
12587;SDS011;6359;51.450;7.346;2022-08-19T02:59:49;17.77;;;13.80;;
12587;SDS011;6359;51.450;7.346;2022-08-19T03:02:16;17.63;;;13.63;;
12587;SDS011;6359;51.450;7.346;2022-08-19T03:04:45;20.13;;;14.25;;
12587;SDS011;6359;51.450;7.346;2022-08-19T03:07:12;16.33;;;14.15;;
12587;SDS011;6359;51.450;7.346;2022-08-19T03:09:41;18.45;;;14.18;;
12587;SDS011;6359;51.450;7.346;2022-08-19T03:12:08;17.23;;;14.35;;
12587;SDS011;6359;51.450;7.346;2022-08-19T03:14:35;20.02;;;14.95;;
12587;SDS011;6359;51.450;7.346;2022-08-19T03:17:02;16.67;;;14.90;;
12587;SDS011;6359;51.450;7.346;2022-08-19T03:19:30;18.63;;;15.18;;
12587;SDS011;6359;51.450;7.346;2022-08-19T03:21:59;16.60;;;14.68;;
12587;SDS011;6359;51.450;7.346;2022-08-19T03:24:27;14.02;;;12.48;;
12587;SDS011;6359;51.450;7.346;2022-08-19T03:26:55;18.85;;;14.02;;
12587;SDS011;6359;51.450;7.346;2022-08-19T03:29:24;18.30;;;14.27;;
12587;SDS011;6359;51.450;7.346;2022-08-19T03:31:52;15.75;;;13.40;;
12587;SDS011;6359;51.450;7.346;2022-08-19T03:34:20;17.33;;;13.85;;
12587;SDS011;6359;51.450;7.346;2022-08-19T03:36:51;16.02;;;13.32;;
12587;SDS011;6359;51.450;7.346;2022-08-19T03:39:20;15.63;;;14.00;;
12587;SDS011;6359;51.450;7.346;2022-08-19T03:41:48;17.80;;;15.00;;
12587;SDS011;6359;51.450;7.346;2022-08-19T03:44:17;18.00;;;14.52;;
12587;SDS011;6359;51.450;7.346;2022-08-19T03:46:47;17.88;;;14.57;;
12587;SDS011;6359;51.450;7.346;2022-08-19T03:49:17;20.20;;;16.40;;
12587;SDS011;6359;51.450;7.346;2022-08-19T03:51:44;21.58;;;17.40;;
12587;SDS011;6359;51.450;7.346;2022-08-19T03:54:13;21.67;;;17.38;;
12587;SDS011;6359;51.450;7.346;2022-08-19T03:56:43;19.83;;;15.32;;
12587;SDS011;6359;51.450;7.346;2022-08-19T03:59:13;21.20;;;15.13;;
12587;SDS011;6359;51.450;7.346;2022-08-19T04:01:42;17.58;;;15.10;;
12587;SDS011;6359;51.450;7.346;2022-08-19T04:04:09;19.23;;;15.18;;
12587;SDS011;6359;51.450;7.346;2022-08-19T04:06:37;18.50;;;15.60;;
12587;SDS011;6359;51.450;7.346;2022-08-19T04:09:06;21.17;;;15.57;;
12587;SDS011;6359;51.450;7.346;2022-08-19T04:11:35;17.85;;;15.40;;
12587;SDS011;6359;51.450;7.346;2022-08-19T04:14:06;21.77;;;16.42;;
12587;SDS011;6359;51.450;7.346;2022-08-19T04:16:34;16.95;;;14.88;;
12587;SDS011;6359;51.450;7.346;2022-08-19T04:19:01;17.80;;;15.90;;
12587;SDS011;6359;51.450;7.346;2022-08-19T04:21:30;18.73;;;16.45;;
12587;SDS011;6359;51.450;7.346;2022-08-19T04:23:57;18.38;;;14.82;;
12587;SDS011;6359;51.450;7.346;2022-08-19T04:26:25;20.88;;;15.07;;
12587;SDS011;6359;51.450;7.346;2022-08-19T04:28:57;17.55;;;14.65;;
12587;SDS011;6359;51.450;7.346;2022-08-19T04:31:26;21.10;;;15.82;;
12587;SDS011;6359;51.450;7.346;2022-08-19T04:33:55;24.38;;;16.13;;
12587;SDS011;6359;51.450;7.346;2022-08-19T04:36:24;18.63;;;15.75;;
12587;SDS011;6359;51.450;7.346;2022-08-19T04:38:53;23.40;;;15.68;;
12587;SDS011;6359;51.450;7.346;2022-08-19T04:41:22;21.23;;;18.05;;
12587;SDS011;6359;51.450;7.346;2022-08-19T04:44:07;19.65;;;15.88;;
12587;SDS011;6359;51.450;7.346;2022-08-19T04:46:35;24.88;;;18.02;;
12587;SDS011;6359;51.450;7.346;2022-08-19T04:49:03;27.60;;;18.30;;
12587;SDS011;6359;51.450;7.346;2022-08-19T04:51:31;23.95;;;16.95;;
12587;SDS011;6359;51.450;7.346;2022-08-19T04:53:59;17.52;;;15.63;;
12587;SDS011;6359;51.450;7.346;2022-08-19T04:56:27;20.73;;;15.48;;
12587;SDS011;6359;51.450;7.346;2022-08-19T04:58:55;23.48;;;15.68;;
12587;SDS011;6359;51.450;7.346;2022-08-19T05:01:24;19.65;;;14.07;;
12587;SDS011;6359;51.450;7.346;2022-08-19T05:03:54;16.45;;;14.38;;
12587;SDS011;6359;51.450;7.346;2022-08-19T05:06:22;21.20;;;14.82;;
12587;SDS011;6359;51.450;7.346;2022-08-19T05:08:50;19.27;;;15.15;;
12587;SDS011;6359;51.450;7.346;2022-08-19T05:11:19;23.20;;;17.52;;
12587;SDS011;6359;51.450;7.346;2022-08-19T05:13:49;24.10;;;17.58;;
12587;SDS011;6359;51.450;7.346;2022-08-19T05:16:18;19.67;;;16.90;;
12587;SDS011;6359;51.450;7.346;2022-08-19T05:18:46;19.90;;;16.90;;
12587;SDS011;6359;51.450;7.346;2022-08-19T05:21:32;18.13;;;14.55;;
12587;SDS011;6359;51.450;7.346;2022-08-19T05:24:18;17.73;;;14.93;;
12587;SDS011;6359;51.450;7.346;2022-08-19T05:26:48;18.77;;;16.70;;
12587;SDS011;6359;51.450;7.346;2022-08-19T05:29:16;21.48;;;17.00;;
12587;SDS011;6359;51.450;7.346;2022-08-19T05:31:45;18.98;;;15.07;;
12587;SDS011;6359;51.450;7.346;2022-08-19T05:34:14;22.23;;;16.42;;
12587;SDS011;6359;51.450;7.346;2022-08-19T05:36:43;17.55;;;15.43;;
12587;SDS011;6359;51.450;7.346;2022-08-19T05:39:12;17.70;;;15.90;;
12587;SDS011;6359;51.450;7.346;2022-08-19T05:41:41;20.92;;;15.35;;
12587;SDS011;6359;51.450;7.346;2022-08-19T05:44:08;17.33;;;14.15;;
12587;SDS011;6359;51.450;7.346;2022-08-19T05:46:36;18.65;;;15.43;;
12587;SDS011;6359;51.450;7.346;2022-08-19T05:49:04;16.35;;;14.63;;
12587;SDS011;6359;51.450;7.346;2022-08-19T05:51:32;20.63;;;14.55;;
12587;SDS011;6359;51.450;7.346;2022-08-19T05:54:01;17.38;;;14.68;;
12587;SDS011;6359;51.450;7.346;2022-08-19T05:56:29;20.52;;;14.48;;
12587;SDS011;6359;51.450;7.346;2022-08-19T05:58:56;20.27;;;14.25;;
12587;SDS011;6359;51.450;7.346;2022-08-19T06:01:25;19.20;;;14.48;;
12587;SDS011;6359;51.450;7.346;2022-08-19T06:03:52;19.17;;;14.15;;
12587;SDS011;6359;51.450;7.346;2022-08-19T06:06:20;18.75;;;13.63;;
12587;SDS011;6359;51.450;7.346;2022-08-19T06:08:47;19.50;;;13.63;;
12587;SDS011;6359;51.450;7.346;2022-08-19T06:11:19;17.77;;;13.15;;
12587;SDS011;6359;51.450;7.346;2022-08-19T06:13:49;14.95;;;11.45;;
12587;SDS011;6359;51.450;7.346;2022-08-19T06:16:17;15.73;;;12.48;;
12587;SDS011;6359;51.450;7.346;2022-08-19T06:18:48;18.85;;;12.32;;
12587;SDS011;6359;51.450;7.346;2022-08-19T06:21:18;16.85;;;12.32;;
12587;SDS011;6359;51.450;7.346;2022-08-19T06:23:45;15.68;;;12.25;;
12587;SDS011;6359;51.450;7.346;2022-08-19T06:26:12;17.65;;;12.57;;
12587;SDS011;6359;51.450;7.346;2022-08-19T06:28:41;19.42;;;13.02;;
12587;SDS011;6359;51.450;7.346;2022-08-19T06:31:11;17.55;;;12.07;;
12587;SDS011;6359;51.450;7.346;2022-08-19T06:33:39;17.60;;;11.65;;
12587;SDS011;6359;51.450;7.346;2022-08-19T06:36:07;18.25;;;11.93;;
12587;SDS011;6359;51.450;7.346;2022-08-19T06:38:41;14.18;;;11.60;;
12587;SDS011;6359;51.450;7.346;2022-08-19T06:41:08;14.93;;;11.63;;
12587;SDS011;6359;51.450;7.346;2022-08-19T06:43:36;12.82;;;11.50;;
12587;SDS011;6359;51.450;7.346;2022-08-19T06:46:04;15.00;;;10.05;;
12587;SDS011;6359;51.450;7.346;2022-08-19T06:48:37;16.65;;;10.93;;
12587;SDS011;6359;51.450;7.346;2022-08-19T06:51:04;12.02;;;10.82;;
12587;SDS011;6359;51.450;7.346;2022-08-19T06:53:31;15.05;;;10.98;;
12587;SDS011;6359;51.450;7.346;2022-08-19T06:55:59;19.48;;;11.02;;
12587;SDS011;6359;51.450;7.346;2022-08-19T06:58:27;12.73;;;10.02;;
12587;SDS011;6359;51.450;7.346;2022-08-19T07:00:57;13.48;;;10.10;;
12587;SDS011;6359;51.450;7.346;2022-08-19T07:03:28;14.00;;;10.60;;
12587;SDS011;6359;51.450;7.346;2022-08-19T07:05:56;17.10;;;11.30;;
12587;SDS011;6359;51.450;7.346;2022-08-19T07:08:24;15.32;;;10.68;;
12587;SDS011;6359;51.450;7.346;2022-08-19T07:10:52;16.40;;;10.50;;
12587;SDS011;6359;51.450;7.346;2022-08-19T07:13:19;14.10;;;10.65;;
12587;SDS011;6359;51.450;7.346;2022-08-19T07:15:47;21.42;;;11.32;;
12587;SDS011;6359;51.450;7.346;2022-08-19T07:18:15;18.02;;;12.60;;
12587;SDS011;6359;51.450;7.346;2022-08-19T07:20:45;17.35;;;12.48;;
12587;SDS011;6359;51.450;7.346;2022-08-19T07:23:12;19.00;;;12.90;;
12587;SDS011;6359;51.450;7.346;2022-08-19T07:25:39;17.73;;;11.50;;
12587;SDS011;6359;51.450;7.346;2022-08-19T07:28:06;15.07;;;11.25;;
12587;SDS011;6359;51.450;7.346;2022-08-19T07:30:35;18.45;;;11.80;;
12587;SDS011;6359;51.450;7.346;2022-08-19T07:33:03;21.92;;;12.88;;
12587;SDS011;6359;51.450;7.346;2022-08-19T07:35:31;22.90;;;13.07;;
12587;SDS011;6359;51.450;7.346;2022-08-19T07:40:29;17.13;;;13.02;;
12587;SDS011;6359;51.450;7.346;2022-08-19T07:42:56;20.08;;;13.43;;
12587;SDS011;6359;51.450;7.346;2022-08-19T07:45:23;12.70;;;10.88;;
12587;SDS011;6359;51.450;7.346;2022-08-19T07:47:52;20.45;;;11.70;;
12587;SDS011;6359;51.450;7.346;2022-08-19T07:50:19;12.95;;;10.18;;
12587;SDS011;6359;51.450;7.346;2022-08-19T07:52:46;16.77;;;10.40;;
12587;SDS011;6359;51.450;7.346;2022-08-19T07:55:17;18.35;;;11.35;;
12587;SDS011;6359;51.450;7.346;2022-08-19T07:57:46;13.15;;;9.63;;
12587;SDS011;6359;51.450;7.346;2022-08-19T08:00:13;12.93;;;9.35;;
12587;SDS011;6359;51.450;7.346;2022-08-19T08:02:41;13.43;;;10.02;;
12587;SDS011;6359;51.450;7.346;2022-08-19T08:05:08;13.27;;;9.73;;
12587;SDS011;6359;51.450;7.346;2022-08-19T08:07:53;15.95;;;9.60;;
12587;SDS011;6359;51.450;7.346;2022-08-19T08:10:39;12.40;;;9.57;;
12587;SDS011;6359;51.450;7.346;2022-08-19T08:13:06;16.70;;;10.05;;
12587;SDS011;6359;51.450;7.346;2022-08-19T08:15:33;10.15;;;7.47;;
12587;SDS011;6359;51.450;7.346;2022-08-19T08:18:02;10.45;;;7.10;;
12587;SDS011;6359;51.450;7.346;2022-08-19T08:20:29;14.25;;;7.10;;
12587;SDS011;6359;51.450;7.346;2022-08-19T08:22:56;10.75;;;7.47;;
12587;SDS011;6359;51.450;7.346;2022-08-19T08:25:42;11.32;;;7.80;;
12587;SDS011;6359;51.450;7.346;2022-08-19T08:28:09;13.15;;;8.43;;
12587;SDS011;6359;51.450;7.346;2022-08-19T08:30:36;14.52;;;9.05;;
12587;SDS011;6359;51.450;7.346;2022-08-19T08:33:06;11.77;;;9.40;;
12587;SDS011;6359;51.450;7.346;2022-08-19T08:35:33;11.32;;;8.73;;
12587;SDS011;6359;51.450;7.346;2022-08-19T08:38:01;10.63;;;9.20;;
12587;SDS011;6359;51.450;7.346;2022-08-19T08:40:30;10.68;;;8.63;;
12587;SDS011;6359;51.450;7.346;2022-08-19T08:43:03;12.95;;;10.05;;
12587;SDS011;6359;51.450;7.346;2022-08-19T08:45:36;13.40;;;9.98;;
12587;SDS011;6359;51.450;7.346;2022-08-19T08:48:13;18.63;;;9.98;;
12587;SDS011;6359;51.450;7.346;2022-08-19T08:50:44;14.48;;;10.23;;
12587;SDS011;6359;51.450;7.346;2022-08-19T08:53:13;11.35;;;9.77;;
12587;SDS011;6359;51.450;7.346;2022-08-19T08:55:42;12.70;;;10.90;;
12587;SDS011;6359;51.450;7.346;2022-08-19T08:58:13;13.50;;;11.45;;
12587;SDS011;6359;51.450;7.346;2022-08-19T09:00:44;14.02;;;11.07;;
12587;SDS011;6359;51.450;7.346;2022-08-19T09:03:16;13.77;;;12.35;;
12587;SDS011;6359;51.450;7.346;2022-08-19T09:05:47;13.82;;;11.38;;
12587;SDS011;6359;51.450;7.346;2022-08-19T09:08:26;14.20;;;12.70;;
12587;SDS011;6359;51.450;7.346;2022-08-19T09:11:04;16.45;;;12.38;;
12587;SDS011;6359;51.450;7.346;2022-08-19T09:13:37;16.50;;;11.02;;
12587;SDS011;6359;51.450;7.346;2022-08-19T09:16:12;14.88;;;11.02;;
12587;SDS011;6359;51.450;7.346;2022-08-19T09:18:41;13.25;;;11.10;;
12587;SDS011;6359;51.450;7.346;2022-08-19T09:21:11;14.07;;;10.25;;
12587;SDS011;6359;51.450;7.346;2022-08-19T09:23:38;12.82;;;11.52;;
12587;SDS011;6359;51.450;7.346;2022-08-19T09:26:08;14.15;;;11.95;;
12587;SDS011;6359;51.450;7.346;2022-08-19T09:28:40;13.85;;;10.68;;
12587;SDS011;6359;51.450;7.346;2022-08-19T09:31:09;11.48;;;10.15;;
12587;SDS011;6359;51.450;7.346;2022-08-19T09:33:36;10.43;;;9.50;;
12587;SDS011;6359;51.450;7.346;2022-08-19T09:36:07;14.27;;;12.30;;
12587;SDS011;6359;51.450;7.346;2022-08-19T09:38:38;14.65;;;12.63;;
12587;SDS011;6359;51.450;7.346;2022-08-19T09:41:07;18.90;;;16.95;;
12587;SDS011;6359;51.450;7.346;2022-08-19T09:43:36;19.23;;;15.52;;
12587;SDS011;6359;51.450;7.346;2022-08-19T09:46:05;20.60;;;18.40;;
12587;SDS011;6359;51.450;7.346;2022-08-19T09:48:34;20.05;;;18.02;;
12587;SDS011;6359;51.450;7.346;2022-08-19T09:51:02;19.98;;;17.88;;
12587;SDS011;6359;51.450;7.346;2022-08-19T09:53:31;22.85;;;18.27;;
12587;SDS011;6359;51.450;7.346;2022-08-19T09:55:58;23.17;;;20.65;;
12587;SDS011;6359;51.450;7.346;2022-08-19T09:58:25;27.73;;;19.98;;
12587;SDS011;6359;51.450;7.346;2022-08-19T10:00:54;26.33;;;20.60;;
12587;SDS011;6359;51.450;7.346;2022-08-19T10:03:23;20.98;;;18.83;;
12587;SDS011;6359;51.450;7.346;2022-08-19T10:05:50;23.42;;;21.08;;
12587;SDS011;6359;51.450;7.346;2022-08-19T10:08:18;24.67;;;19.52;;
12587;SDS011;6359;51.450;7.346;2022-08-19T10:10:47;23.65;;;20.95;;
12587;SDS011;6359;51.450;7.346;2022-08-19T10:13:21;22.63;;;20.23;;
12587;SDS011;6359;51.450;7.346;2022-08-19T10:15:50;23.48;;;21.00;;
12587;SDS011;6359;51.450;7.346;2022-08-19T10:18:18;25.88;;;20.50;;
12587;SDS011;6359;51.450;7.346;2022-08-19T10:20:48;19.00;;;17.02;;
12587;SDS011;6359;51.450;7.346;2022-08-19T10:23:17;20.58;;;16.98;;
12587;SDS011;6359;51.450;7.346;2022-08-19T10:25:45;21.15;;;18.60;;
12587;SDS011;6359;51.450;7.346;2022-08-19T10:28:13;17.48;;;15.63;;
12587;SDS011;6359;51.450;7.346;2022-08-19T10:30:40;16.45;;;14.27;;
12587;SDS011;6359;51.450;7.346;2022-08-19T10:33:07;15.52;;;14.05;;
12587;SDS011;6359;51.450;7.346;2022-08-19T10:35:34;14.63;;;13.05;;
12587;SDS011;6359;51.450;7.346;2022-08-19T10:38:03;14.45;;;12.77;;
12587;SDS011;6359;51.450;7.346;2022-08-19T10:40:30;14.07;;;11.85;;
12587;SDS011;6359;51.450;7.346;2022-08-19T10:42:56;10.95;;;9.80;;
12587;SDS011;6359;51.450;7.346;2022-08-19T10:45:24;12.30;;;11.02;;
12587;SDS011;6359;51.450;7.346;2022-08-19T10:47:52;10.70;;;8.52;;
12587;SDS011;6359;51.450;7.346;2022-08-19T10:50:19;10.43;;;8.95;;
12587;SDS011;6359;51.450;7.346;2022-08-19T10:53:06;9.65;;;8.15;;
12587;SDS011;6359;51.450;7.346;2022-08-19T10:55:34;10.88;;;8.93;;
12587;SDS011;6359;51.450;7.346;2022-08-19T10:58:34;10.00;;;8.77;;
12587;SDS011;6359;51.450;7.346;2022-08-19T11:01:01;13.07;;;9.73;;
12587;SDS011;6359;51.450;7.346;2022-08-19T11:03:28;10.35;;;9.00;;
12587;SDS011;6359;51.450;7.346;2022-08-19T11:05:59;11.18;;;10.00;;
12587;SDS011;6359;51.450;7.346;2022-08-19T11:08:28;13.15;;;9.70;;
12587;SDS011;6359;51.450;7.346;2022-08-19T11:10:58;10.93;;;8.45;;
12587;SDS011;6359;51.450;7.346;2022-08-19T11:13:26;10.60;;;7.65;;
12587;SDS011;6359;51.450;7.346;2022-08-19T11:15:58;14.07;;;8.00;;
12587;SDS011;6359;51.450;7.346;2022-08-19T11:18:26;10.75;;;7.75;;
12587;SDS011;6359;51.450;7.346;2022-08-19T11:20:53;11.43;;;8.10;;
12587;SDS011;6359;51.450;7.346;2022-08-19T11:23:20;9.90;;;8.10;;
12587;SDS011;6359;51.450;7.346;2022-08-19T11:25:48;11.40;;;10.05;;
12587;SDS011;6359;51.450;7.346;2022-08-19T11:28:15;13.57;;;10.45;;
12587;SDS011;6359;51.450;7.346;2022-08-19T11:30:42;11.38;;;10.25;;
12587;SDS011;6359;51.450;7.346;2022-08-19T11:33:09;10.15;;;9.18;;
12587;SDS011;6359;51.450;7.346;2022-08-19T11:35:38;12.15;;;10.15;;
12587;SDS011;6359;51.450;7.346;2022-08-19T11:38:06;11.70;;;9.93;;
12587;SDS011;6359;51.450;7.346;2022-08-19T11:40:33;11.48;;;10.30;;
12587;SDS011;6359;51.450;7.346;2022-08-19T11:43:01;12.15;;;11.00;;
12587;SDS011;6359;51.450;7.346;2022-08-19T11:45:29;15.07;;;13.57;;
12587;SDS011;6359;51.450;7.346;2022-08-19T11:47:56;14.40;;;12.40;;
12587;SDS011;6359;51.450;7.346;2022-08-19T11:50:23;13.93;;;12.57;;
12587;SDS011;6359;51.450;7.346;2022-08-19T11:52:52;17.15;;;12.75;;
12587;SDS011;6359;51.450;7.346;2022-08-19T11:55:20;16.40;;;12.18;;
12587;SDS011;6359;51.450;7.346;2022-08-19T11:57:47;15.98;;;12.40;;
12587;SDS011;6359;51.450;7.346;2022-08-19T12:00:16;15.63;;;12.70;;
12587;SDS011;6359;51.450;7.346;2022-08-19T12:02:43;13.40;;;11.95;;
12587;SDS011;6359;51.450;7.346;2022-08-19T12:05:10;18.50;;;12.40;;
12587;SDS011;6359;51.450;7.346;2022-08-19T12:07:37;13.02;;;11.63;;
12587;SDS011;6359;51.450;7.346;2022-08-19T12:10:06;11.70;;;10.35;;
12587;SDS011;6359;51.450;7.346;2022-08-19T12:12:34;10.68;;;9.57;;
12587;SDS011;6359;51.450;7.346;2022-08-19T12:15:05;10.07;;;8.98;;
12587;SDS011;6359;51.450;7.346;2022-08-19T12:17:35;9.68;;;8.65;;
12587;SDS011;6359;51.450;7.346;2022-08-19T12:20:02;10.20;;;9.10;;
12587;SDS011;6359;51.450;7.346;2022-08-19T12:22:30;12.00;;;10.15;;
12587;SDS011;6359;51.450;7.346;2022-08-19T12:24:57;13.60;;;9.25;;
12587;SDS011;6359;51.450;7.346;2022-08-19T12:27:24;10.25;;;8.70;;
12587;SDS011;6359;51.450;7.346;2022-08-19T12:29:51;14.85;;;11.55;;
12587;SDS011;6359;51.450;7.346;2022-08-19T12:32:18;12.88;;;9.00;;
12587;SDS011;6359;51.450;7.346;2022-08-19T12:34:46;12.63;;;9.77;;
12587;SDS011;6359;51.450;7.346;2022-08-19T12:37:13;10.02;;;9.00;;
12587;SDS011;6359;51.450;7.346;2022-08-19T12:39:41;12.40;;;9.30;;
12587;SDS011;6359;51.450;7.346;2022-08-19T12:42:09;12.10;;;9.35;;
12587;SDS011;6359;51.450;7.346;2022-08-19T12:44:37;9.95;;;7.72;;
12587;SDS011;6359;51.450;7.346;2022-08-19T12:47:05;12.98;;;8.57;;
12587;SDS011;6359;51.450;7.346;2022-08-19T12:49:33;12.23;;;8.15;;
12587;SDS011;6359;51.450;7.346;2022-08-19T12:52:03;9.35;;;7.28;;
12587;SDS011;6359;51.450;7.346;2022-08-19T12:54:31;9.43;;;8.43;;
12587;SDS011;6359;51.450;7.346;2022-08-19T12:56:58;9.88;;;8.15;;
12587;SDS011;6359;51.450;7.346;2022-08-19T12:59:25;8.65;;;7.57;;
12587;SDS011;6359;51.450;7.346;2022-08-19T13:01:52;8.88;;;6.20;;
12587;SDS011;6359;51.450;7.346;2022-08-19T13:04:19;7.97;;;6.72;;
12587;SDS011;6359;51.450;7.346;2022-08-19T13:06:46;11.80;;;6.93;;
12587;SDS011;6359;51.450;7.346;2022-08-19T13:09:14;7.70;;;6.38;;
12587;SDS011;6359;51.450;7.346;2022-08-19T13:11:41;7.00;;;6.40;;
12587;SDS011;6359;51.450;7.346;2022-08-19T13:14:08;7.60;;;5.57;;
12587;SDS011;6359;51.450;7.346;2022-08-19T13:16:36;6.57;;;5.05;;
12587;SDS011;6359;51.450;7.346;2022-08-19T13:19:03;11.93;;;5.43;;
12587;SDS011;6359;51.450;7.346;2022-08-19T13:21:30;9.07;;;6.07;;
12587;SDS011;6359;51.450;7.346;2022-08-19T13:23:57;5.60;;;4.90;;
12587;SDS011;6359;51.450;7.346;2022-08-19T13:26:26;8.95;;;5.72;;
12587;SDS011;6359;51.450;7.346;2022-08-19T13:28:53;6.18;;;4.40;;
12587;SDS011;6359;51.450;7.346;2022-08-19T13:31:39;6.60;;;4.57;;
12587;SDS011;6359;51.450;7.346;2022-08-19T13:34:29;4.97;;;4.05;;
12587;SDS011;6359;51.450;7.346;2022-08-19T13:36:58;5.57;;;4.20;;
12587;SDS011;6359;51.450;7.346;2022-08-19T13:39:28;9.65;;;4.90;;
12587;SDS011;6359;51.450;7.346;2022-08-19T13:41:56;5.22;;;4.78;;
12587;SDS011;6359;51.450;7.346;2022-08-19T13:44:24;4.65;;;4.25;;
12587;SDS011;6359;51.450;7.346;2022-08-19T13:46:54;8.25;;;4.72;;
12587;SDS011;6359;51.450;7.346;2022-08-19T13:49:27;8.30;;;5.53;;
12587;SDS011;6359;51.450;7.346;2022-08-19T13:51:56;5.38;;;4.78;;
12587;SDS011;6359;51.450;7.346;2022-08-19T13:54:23;5.10;;;4.60;;
12587;SDS011;6359;51.450;7.346;2022-08-19T13:56:49;6.40;;;4.78;;
12587;SDS011;6359;51.450;7.346;2022-08-19T13:59:18;7.03;;;4.97;;
12587;SDS011;6359;51.450;7.346;2022-08-19T14:01:45;5.68;;;4.95;;
12587;SDS011;6359;51.450;7.346;2022-08-19T14:04:12;9.73;;;5.10;;
12587;SDS011;6359;51.450;7.346;2022-08-19T14:06:39;8.52;;;4.80;;
12587;SDS011;6359;51.450;7.346;2022-08-19T14:09:05;8.75;;;4.60;;
12587;SDS011;6359;51.450;7.346;2022-08-19T14:11:32;6.22;;;4.60;;
12587;SDS011;6359;51.450;7.346;2022-08-19T14:13:59;6.68;;;4.68;;
12587;SDS011;6359;51.450;7.346;2022-08-19T14:16:27;6.63;;;5.60;;
12587;SDS011;6359;51.450;7.346;2022-08-19T14:18:55;5.50;;;5.00;;
12587;SDS011;6359;51.450;7.346;2022-08-19T14:21:23;6.65;;;4.28;;
12587;SDS011;6359;51.450;7.346;2022-08-19T14:23:50;7.88;;;4.50;;
12587;SDS011;6359;51.450;7.346;2022-08-19T14:26:18;9.80;;;4.22;;
12587;SDS011;6359;51.450;7.346;2022-08-19T14:28:46;6.05;;;4.50;;
12587;SDS011;6359;51.450;7.346;2022-08-19T14:31:14;8.27;;;4.60;;
12587;SDS011;6359;51.450;7.346;2022-08-19T14:33:45;5.70;;;4.40;;
12587;SDS011;6359;51.450;7.346;2022-08-19T14:36:13;6.07;;;4.60;;
12587;SDS011;6359;51.450;7.346;2022-08-19T14:38:40;7.53;;;4.88;;
12587;SDS011;6359;51.450;7.346;2022-08-19T14:41:11;5.78;;;4.07;;
12587;SDS011;6359;51.450;7.346;2022-08-19T14:43:41;6.35;;;4.32;;
12587;SDS011;6359;51.450;7.346;2022-08-19T14:46:11;8.05;;;4.18;;
12587;SDS011;6359;51.450;7.346;2022-08-19T14:48:38;8.63;;;4.75;;
12587;SDS011;6359;51.450;7.346;2022-08-19T14:51:07;9.80;;;4.75;;
12587;SDS011;6359;51.450;7.346;2022-08-19T14:53:34;5.55;;;4.80;;